Aviation Digital Data Service (ADDS)

Output produced by TAFs form (0426 UTC 22 September 2017)
found at http://www.aviationweather.gov/adds/tafs/
 
METAR text: RJFG 220400Z 29018KT 9999 FEW005 SCT010 BKN015 26/24 Q1010
Conditions at: RJFG (TANEGASHIMA AIRP, JP) observed 0400 UTC 22 September 2017
Temperature: 26.0°C (79°F)
Dewpoint: 24.0°C (75°F) [RH = 89%]
Pressure (altimeter): 29.82 inches Hg (1010.0 mb)
Winds: from the WNW (290 degrees) at 21 MPH (18 knots; 9.4 m/s)
Visibility: 6 or more miles (10+ km)
Ceiling: 1500 feet AGL
Clouds: few clouds at 500 feet AGL
scattered clouds at 1000 feet AGL
broken clouds at 1500 feet AGL
Weather: no significant weather observed at this time